Oregonia, Ohio
Current Conditions -  °F | °C
As of 12:53 AM on Monday 20 Oct 2014 (Local Time) from KMGY Reporting Station
Clear Clear  
Wind Chill: 42°   Ceiling: Unl
Heat Index: 45°   Visibility: 10mi
Dew Point: 39°   Wind: 6mph
Humidity: 80%   Direction: 180°S
Pressure: 30.04"   Gusts: NA
Location:  39.45°N, 84.1°W
Report Text: KMGY 200453Z AUTO 18005KT 10SM CLR 07/04 A3004 RMK AO2 SLP173 T00720039 401280039
Loading
Personal Weather Stations






























Interactive Weather Map
Tropical Storm Tracking
New forecast layout! Learn more

10-Day Weather Forecast

Advertisements
Track Severe Weather on mobile